Anna II — SY7282 — position and weather

sailwx.info

Track history (hours):
 
Tides and Currents Weather Stations Pressure Air Temp Water Temp Dewpoint Dewpoint Depression Visibility Wind Speed Wind Dir Waves Ship Positions

Anna II

Last reported at 2018-Jun-16 13:40 UTC. Time now 2018-Jun-19 16:31 UTC.
Position N 37°49' E 023°24'.

Length 15 m.

MMSI: 239076600.

Date/timePositionNaut miles runAvg speedWind from/ knotsBaromVisibWave heightAir tempDewpointWater temp
2018-Jun-16 13:40N 37°49' E 023°24'1 6.3
2018-Jun-16 13:30N 37°50' E 023°25'4 6.8
2018-Jun-16 12:59N 37°51' E 023°30'3 6.8
2018-Jun-16 12:30N 37°52' E 023°33'3 6.6
2018-Jun-16 12:00N 37°53' E 023°37'3 6.4
2018-Jun-16 11:30N 37°54' E 023°41'1 1.9
2018-Jun-16 10:59N 37°55' E 023°42'0 0.0
2018-Jun-16 10:28N 37°55' E 023°42'0 0.0
2018-Jun-16 09:58N 37°55' E 023°42'0 0.0
2018-Jun-16 09:28N 37°55' E 023°42'0 0.0
2018-Jun-16 08:58N 37°55' E 023°42'0 0.0
2018-Jun-16 08:28N 37°55' E 023°42'0 0.0
2018-Jun-16 07:58N 37°55' E 023°42'0 0.0
2018-Jun-16 07:29N 37°55' E 023°42'1 1.9
2018-Jun-16 07:01N 37°54' E 023°41'3 7.0
2018-Jun-16 06:31N 37°52' E 023°38'3 6.8
2018-Jun-16 06:00N 37°51' E 023°34'3 6.8
2018-Jun-16 05:30N 37°49' E 023°30'4 7.2
2018-Jun-16 05:01N 37°47' E 023°27'  
2018-Jun-13 13:49N 37°43' E 023°21'0 0.0
2018-Jun-13 13:28N 37°43' E 023°21'0 0.0
2018-Jun-13 12:58N 37°43' E 023°21'0 0.0
2018-Jun-13 12:25N 37°43' E 023°21'0 0.0
2018-Jun-13 11:58N 37°43' E 023°21'1 0.3
2018-Jun-13 09:08N 37°43' E 023°20'1 5.7
2018-Jun-13 08:56N 37°43' E 023°18'2 5.0
2018-Jun-13 08:30N 37°44' E 023°16'2 4.6
2018-Jun-13 07:58N 37°44' E 023°13'  
2018-Jun-09 12:36N 37°40' E 023°31'1 7.0
2018-Jun-09 12:30N 37°41' E 023°31'3 7.0
2018-Jun-09 12:00N 37°44' E 023°34'3 6.9
2018-Jun-09 11:30N 37°47' E 023°36'3 6.3
2018-Jun-09 11:00N 37°49' E 023°38'3 6.4
2018-Jun-09 10:28N 37°52' E 023°40'3 6.2
2018-Jun-09 10:00N 37°55' E 023°42'0 0.5
2018-Jun-09 09:29N 37°55' E 023°42'0 0.0
2018-Jun-09 08:59N 37°55' E 023°42'0 0.0
2018-Jun-09 08:29N 37°55' E 023°42'0 0.0
2018-Jun-09 07:59N 37°55' E 023°42'0 0.0
2018-Jun-09 07:29N 37°55' E 023°42'0 0.0
2018-Jun-09 06:59N 37°55' E 023°42'0 0.0
2018-Jun-09 06:29N 37°55' E 023°42'0 0.0
2018-Jun-09 05:53N 37°55' E 023°42'0 0.0
2018-Jun-09 05:29N 37°55' E 023°42'0 0.0
2018-Jun-09 04:59N 37°55' E 023°42'0 0.0
2018-Jun-09 04:29N 37°55' E 023°42'0 0.0
2018-Jun-09 03:59N 37°55' E 023°42'0 0.0
2018-Jun-09 03:29N 37°55' E 023°42'0 0.0
2018-Jun-09 02:59N 37°55' E 023°42'0 0.0
2018-Jun-09 02:29N 37°55' E 023°42'0 0.0
2018-Jun-09 01:59N 37°55' E 023°42'0 0.0
2018-Jun-09 01:29N 37°55' E 023°42'0 0.0
2018-Jun-09 00:59N 37°55' E 023°42'0 0.0
2018-Jun-09 00:26N 37°55' E 023°42'0 0.0
2018-Jun-08 23:59N 37°55' E 023°42'0 0.0
2018-Jun-08 23:29N 37°55' E 023°42'0 0.0
2018-Jun-08 22:59N 37°55' E 023°42'0 0.0
2018-Jun-08 22:29N 37°55' E 023°42'0 0.0
2018-Jun-08 21:59N 37°55' E 023°42'0 0.0
2018-Jun-08 21:29N 37°55' E 023°42'0 0.0
2018-Jun-08 20:53N 37°55' E 023°42'0 0.0
2018-Jun-08 20:29N 37°55' E 023°42'0 0.0
2018-Jun-08 19:59N 37°55' E 023°42'0 0.0
2018-Jun-08 19:29N 37°55' E 023°42'0 0.0
2018-Jun-08 18:59N 37°55' E 023°42'0 0.0
2018-Jun-08 18:29N 37°55' E 023°42'0 0.0
2018-Jun-08 17:56N 37°55' E 023°42'0 0.0
2018-Jun-08 17:29N 37°55' E 023°42'0 0.0
2018-Jun-08 16:56N 37°55' E 023°42'0 0.0
2018-Jun-08 16:29N 37°55' E 023°42'0 0.0
2018-Jun-08 15:59N 37°55' E 023°42'0 0.0
2018-Jun-08 15:29N 37°55' E 023°42'0 0.0
2018-Jun-08 14:59N 37°55' E 023°42'0 0.0
2018-Jun-08 14:29N 37°55' E 023°42'0 0.0
2018-Jun-08 13:59N 37°55' E 023°42'0 0.0
2018-Jun-08 13:29N 37°55' E 023°42'0 0.0
2018-Jun-08 12:59N 37°55' E 023°42'0 0.0
2018-Jun-08 12:29N 37°55' E 023°42'0 1.0
2018-Jun-08 12:00N 37°54' E 023°42'4 7.3
2018-Jun-08 11:30N 37°51' E 023°43'4 7.1
2018-Jun-08 11:00N 37°48' E 023°46'64 2.2
2018-Jun-07 05:32N 37°31' E 025°04'0 7.3
2018-Jun-07 05:29N 37°31' E 025°04'4 7.4
2018-Jun-07 04:59N 37°30' E 025°09'4 7.0
2018-Jun-07 04:29N 37°29' E 025°13'4 7.2
2018-Jun-07 04:00N 37°28' E 025°17'2 0.2
2018-Jun-06 17:36N 37°28' E 025°20'0 0.0
2018-Jun-06 17:21N 37°28' E 025°20'0 0.0
2018-Jun-06 16:51N 37°28' E 025°20'0 0.0
2018-Jun-06 16:12N 37°28' E 025°20'0 0.0
2018-Jun-06 15:36N 37°28' E 025°20'0 0.0
2018-Jun-06 15:21N 37°28' E 025°20'0 0.0
2018-Jun-06 15:00N 37°28' E 025°20'0 0.0
2018-Jun-06 14:18N 37°28' E 025°20'0 0.0
2018-Jun-06 14:00N 37°28' E 025°20'  
Track history (hours):
 
Tides and Currents Weather Stations Pressure Air Temp Water Temp Dewpoint Dewpoint Depression Visibility Wind Speed Wind Dir Waves Ship Positions

Anna II

Last reported at 2018-Jun-16 13:40 UTC. Time now 2018-Jun-19 16:31 UTC.
Position N 37°49' E 023°24'.

Length 15 m.

MMSI: 239076600.

Date/timePositionNaut miles runAvg speedWind from/ knotsBaromVisibWave heightAir tempDewpointWater temp
2018-Jun-16 13:40N 37°49' E 023°24'1 6.3
2018-Jun-16 13:30N 37°50' E 023°25'4 6.8
2018-Jun-16 12:59N 37°51' E 023°30'3 6.8
2018-Jun-16 12:30N 37°52' E 023°33'3 6.6
2018-Jun-16 12:00N 37°53' E 023°37'3 6.4
2018-Jun-16 11:30N 37°54' E 023°41'1 1.9
2018-Jun-16 10:59N 37°55' E 023°42'0 0.0
2018-Jun-16 10:28N 37°55' E 023°42'0 0.0
2018-Jun-16 09:58N 37°55' E 023°42'0 0.0
2018-Jun-16 09:28N 37°55' E 023°42'0 0.0
2018-Jun-16 08:58N 37°55' E 023°42'0 0.0
2018-Jun-16 08:28N 37°55' E 023°42'0 0.0
2018-Jun-16 07:58N 37°55' E 023°42'0 0.0
2018-Jun-16 07:29N 37°55' E 023°42'1 1.9
2018-Jun-16 07:01N 37°54' E 023°41'3 7.0
2018-Jun-16 06:31N 37°52' E 023°38'3 6.8
2018-Jun-16 06:00N 37°51' E 023°34'3 6.8
2018-Jun-16 05:30N 37°49' E 023°30'4 7.2
2018-Jun-16 05:01N 37°47' E 023°27'  
2018-Jun-13 13:49N 37°43' E 023°21'0 0.0
2018-Jun-13 13:28N 37°43' E 023°21'0 0.0
2018-Jun-13 12:58N 37°43' E 023°21'0 0.0
2018-Jun-13 12:25N 37°43' E 023°21'0 0.0
2018-Jun-13 11:58N 37°43' E 023°21'1 0.3
2018-Jun-13 09:08N 37°43' E 023°20'1 5.7
2018-Jun-13 08:56N 37°43' E 023°18'2 5.0
2018-Jun-13 08:30N 37°44' E 023°16'2 4.6
2018-Jun-13 07:58N 37°44' E 023°13'  
2018-Jun-09 12:36N 37°40' E 023°31'1 7.0
2018-Jun-09 12:30N 37°41' E 023°31'3 7.0
2018-Jun-09 12:00N 37°44' E 023°34'3 6.9
2018-Jun-09 11:30N 37°47' E 023°36'3 6.3
2018-Jun-09 11:00N 37°49' E 023°38'3 6.4
2018-Jun-09 10:28N 37°52' E 023°40'3 6.2
2018-Jun-09 10:00N 37°55' E 023°42'0 0.5
2018-Jun-09 09:29N 37°55' E 023°42'0 0.0
2018-Jun-09 08:59N 37°55' E 023°42'0 0.0
2018-Jun-09 08:29N 37°55' E 023°42'0 0.0
2018-Jun-09 07:59N 37°55' E 023°42'0 0.0
2018-Jun-09 07:29N 37°55' E 023°42'0 0.0
2018-Jun-09 06:59N 37°55' E 023°42'0 0.0
2018-Jun-09 06:29N 37°55' E 023°42'0 0.0
2018-Jun-09 05:53N 37°55' E 023°42'0 0.0
2018-Jun-09 05:29N 37°55' E 023°42'0 0.0
2018-Jun-09 04:59N 37°55' E 023°42'0 0.0
2018-Jun-09 04:29N 37°55' E 023°42'0 0.0
2018-Jun-09 03:59N 37°55' E 023°42'0 0.0
2018-Jun-09 03:29N 37°55' E 023°42'0 0.0
2018-Jun-09 02:59N 37°55' E 023°42'0 0.0
2018-Jun-09 02:29N 37°55' E 023°42'0 0.0
2018-Jun-09 01:59N 37°55' E 023°42'0 0.0
2018-Jun-09 01:29N 37°55' E 023°42'0 0.0
2018-Jun-09 00:59N 37°55' E 023°42'0 0.0
2018-Jun-09 00:26N 37°55' E 023°42'0 0.0
2018-Jun-08 23:59N 37°55' E 023°42'0 0.0
2018-Jun-08 23:29N 37°55' E 023°42'0 0.0
2018-Jun-08 22:59N 37°55' E 023°42'0 0.0
2018-Jun-08 22:29N 37°55' E 023°42'0 0.0
2018-Jun-08 21:59N 37°55' E 023°42'0 0.0
2018-Jun-08 21:29N 37°55' E 023°42'0 0.0
2018-Jun-08 20:53N 37°55' E 023°42'0 0.0
2018-Jun-08 20:29N 37°55' E 023°42'0 0.0
2018-Jun-08 19:59N 37°55' E 023°42'0 0.0
2018-Jun-08 19:29N 37°55' E 023°42'0 0.0
2018-Jun-08 18:59N 37°55' E 023°42'0 0.0
2018-Jun-08 18:29N 37°55' E 023°42'0 0.0
2018-Jun-08 17:56N 37°55' E 023°42'0 0.0
2018-Jun-08 17:29N 37°55' E 023°42'0 0.0
2018-Jun-08 16:56N 37°55' E 023°42'0 0.0
2018-Jun-08 16:29N 37°55' E 023°42'0 0.0
2018-Jun-08 15:59N 37°55' E 023°42'0 0.0
2018-Jun-08 15:29N 37°55' E 023°42'0 0.0
2018-Jun-08 14:59N 37°55' E 023°42'0 0.0
2018-Jun-08 14:29N 37°55' E 023°42'0 0.0
2018-Jun-08 13:59N 37°55' E 023°42'0 0.0
2018-Jun-08 13:29N 37°55' E 023°42'0 0.0
2018-Jun-08 12:59N 37°55' E 023°42'0 0.0
2018-Jun-08 12:29N 37°55' E 023°42'0 1.0
2018-Jun-08 12:00N 37°54' E 023°42'4 7.3
2018-Jun-08 11:30N 37°51' E 023°43'4 7.1
2018-Jun-08 11:00N 37°48' E 023°46'64 2.2
2018-Jun-07 05:32N 37°31' E 025°04'0 7.3
2018-Jun-07 05:29N 37°31' E 025°04'4 7.4
2018-Jun-07 04:59N 37°30' E 025°09'4 7.0
2018-Jun-07 04:29N 37°29' E 025°13'4 7.2
2018-Jun-07 04:00N 37°28' E 025°17'2 0.2
2018-Jun-06 17:36N 37°28' E 025°20'0 0.0
2018-Jun-06 17:21N 37°28' E 025°20'0 0.0
2018-Jun-06 16:51N 37°28' E 025°20'0 0.0
2018-Jun-06 16:12N 37°28' E 025°20'0 0.0
2018-Jun-06 15:36N 37°28' E 025°20'0 0.0
2018-Jun-06 15:21N 37°28' E 025°20'0 0.0
2018-Jun-06 15:00N 37°28' E 025°20'0 0.0
2018-Jun-06 14:18N 37°28' E 025°20'0 0.0
2018-Jun-06 14:00N 37°28' E 025°20'  

Dump ship's entire track history